createdAt,value
2024-03-02T00:00:53.579Z,22.70
2024-03-02T00:03:21.604Z,23.58
2024-03-02T00:05:53.103Z,22.92
2024-03-02T00:08:29.058Z,21.80
2024-03-02T00:11:00.500Z,22.83
2024-03-02T00:13:27.705Z,22.20
2024-03-02T00:15:57.347Z,22.42
2024-03-02T00:18:29.158Z,23.20
2024-03-02T00:20:58.262Z,22.27
2024-03-02T00:23:28.017Z,23.27
2024-03-02T00:25:58.055Z,21.58
2024-03-02T00:28:26.796Z,22.98
2024-03-02T00:31:03.936Z,22.45
2024-03-02T00:33:36.011Z,23.45
2024-03-02T00:36:04.640Z,23.40
2024-03-02T00:38:31.955Z,23.60
2024-03-02T00:41:00.972Z,22.90
2024-03-02T00:43:45.788Z,23.02
2024-03-02T00:46:17.055Z,21.67
2024-03-02T00:48:49.756Z,21.98
2024-03-02T00:51:16.655Z,21.65
2024-03-02T00:53:43.639Z,23.73
2024-03-02T00:56:13.616Z,21.05
2024-03-02T00:58:40.878Z,23.75
2024-03-02T01:01:08.913Z,23.17
2024-03-02T01:03:35.865Z,22.98
2024-03-02T01:06:03.614Z,22.33
2024-03-02T01:08:30.414Z,23.25
2024-03-02T01:10:57.320Z,22.00
2024-03-02T01:13:24.974Z,23.55
2024-03-02T01:15:51.930Z,22.75
2024-03-02T01:18:19.159Z,22.27
2024-03-02T01:20:46.156Z,22.05
2024-03-02T01:23:13.264Z,21.60
2024-03-02T01:25:40.017Z,22.20
2024-03-02T01:28:07.163Z,22.27
2024-03-02T01:30:34.069Z,22.52
2024-03-02T01:33:01.630Z,21.38
2024-03-02T01:35:29.375Z,23.05
2024-03-02T01:37:56.171Z,23.40
2024-03-02T01:40:24.883Z,22.40
2024-03-02T01:42:51.972Z,23.50
2024-03-02T01:45:19.172Z,23.90
2024-03-02T01:47:46.041Z,21.75
2024-03-02T01:50:13.059Z,23.15
2024-03-02T01:52:39.936Z,22.50
2024-03-02T01:55:07.610Z,24.05
2024-03-02T01:57:35.477Z,24.05
2024-03-02T02:00:02.758Z,24.58
2024-03-02T02:02:38.606Z,22.63
2024-03-02T02:05:05.590Z,23.63
2024-03-02T02:07:32.763Z,24.05
2024-03-02T02:10:00.204Z,24.95
2024-03-02T02:12:27.180Z,22.38
2024-03-02T02:14:55.007Z,23.50
2024-03-02T02:17:21.903Z,22.33
2024-03-02T02:19:51.714Z,23.40
2024-03-02T02:22:18.530Z,22.38
2024-03-02T02:24:45.445Z,24.30
2024-03-02T02:27:15.901Z,24.48
2024-03-02T02:29:43.362Z,23.40
2024-03-02T02:32:10.435Z,23.85
2024-03-02T02:34:37.356Z,22.60
2024-03-02T02:37:04.181Z,23.65
2024-03-02T02:39:31.161Z,22.25
2024-03-02T02:41:58.072Z,24.33
2024-03-02T02:44:25.362Z,23.25
2024-03-02T02:46:58.400Z,23.65
2024-03-02T02:49:25.164Z,23.27
2024-03-02T02:51:52.047Z,21.80
2024-03-02T02:54:18.951Z,23.23
2024-03-02T02:56:46.295Z,23.10
2024-03-02T02:59:13.296Z,23.25
2024-03-02T03:01:41.248Z,22.80
2024-03-02T03:04:08.089Z,23.88
2024-03-02T03:06:34.982Z,26.73
2024-03-02T03:09:01.807Z,27.83
2024-03-02T03:11:28.641Z,27.52
2024-03-02T03:13:55.971Z,29.77
2024-03-02T03:16:22.887Z,28.15
2024-03-02T03:18:52.958Z,31.52
2024-03-02T03:21:22.939Z,32.63
2024-03-02T03:23:49.769Z,31.40
2024-03-02T03:26:19.593Z,34.60
2024-03-02T03:28:46.372Z,31.63
2024-03-02T03:31:13.651Z,32.28
2024-03-02T03:33:40.553Z,34.15
2024-03-02T03:36:07.616Z,31.83
2024-03-02T03:38:34.476Z,32.75
2024-03-02T03:41:01.284Z,35.20
2024-03-02T03:43:28.103Z,35.58
2024-03-02T03:45:54.997Z,31.73
2024-03-02T03:48:21.984Z,32.15
2024-03-02T03:50:54.782Z,31.92
2024-03-02T03:53:21.728Z,33.13
2024-03-02T03:55:50.536Z,30.85
2024-03-02T03:58:21.322Z,33.13
2024-03-02T04:00:49.562Z,33.92
2024-03-02T04:03:16.517Z,31.73
2024-03-02T04:05:43.431Z,34.88
2024-03-02T04:08:10.269Z,33.13
2024-03-02T04:10:37.165Z,34.25
2024-03-02T04:13:04.109Z,33.97
2024-03-02T04:15:31.059Z,31.88
2024-03-02T04:17:58.274Z,34.00
2024-03-02T04:20:25.300Z,33.13
2024-03-02T04:22:52.102Z,34.35
2024-03-02T04:25:18.902Z,33.30
2024-03-02T04:27:45.782Z,32.28
2024-03-02T04:30:13.087Z,31.17
2024-03-02T04:32:40.214Z,31.90
2024-03-02T04:35:09.680Z,33.80
2024-03-02T04:37:36.429Z,35.65
2024-03-02T04:40:03.391Z,30.88
2024-03-02T04:42:33.470Z,32.65
2024-03-02T04:45:00.323Z,32.28
2024-03-02T04:47:27.108Z,30.40
2024-03-02T04:49:53.932Z,30.77
2024-03-02T04:52:20.749Z,31.55
2024-03-02T04:55:06.235Z,29.85
2024-03-02T04:57:33.031Z,30.73
2024-03-02T05:00:00.025Z,30.05
2024-03-02T05:02:26.931Z,30.92
2024-03-02T05:04:53.712Z,33.50
2024-03-02T05:07:20.519Z,33.72
2024-03-02T05:09:50.434Z,34.50
2024-03-02T05:12:30.784Z,33.47
2024-03-02T05:15:04.022Z,33.17
2024-03-02T05:17:30.843Z,31.13
2024-03-02T05:20:05.286Z,30.42
2024-03-02T05:22:32.077Z,30.17
2024-03-02T05:25:01.262Z,33.90
2024-03-02T05:27:28.726Z,32.88
2024-03-02T05:29:55.539Z,35.20
2024-03-02T05:32:22.528Z,34.67
2024-03-02T05:34:49.353Z,35.03
2024-03-02T05:37:16.178Z,33.03
2024-03-02T05:39:44.652Z,36.38
2024-03-02T05:42:11.938Z,35.67
2024-03-02T05:44:38.894Z,35.05
2024-03-02T05:47:06.612Z,36.13
2024-03-02T05:49:33.391Z,35.63
2024-03-02T05:52:00.297Z,34.15
2024-03-02T05:54:27.124Z,35.80
2024-03-02T05:56:54.061Z,34.30
2024-03-02T05:59:20.887Z,34.25
2024-03-02T06:01:48.330Z,34.72
2024-03-02T06:04:15.495Z,34.53
2024-03-02T06:06:42.418Z,35.65
2024-03-02T06:09:09.596Z,36.60
2024-03-02T06:11:37.815Z,33.97
2024-03-02T06:14:08.501Z,33.35
2024-03-02T06:16:35.651Z,32.08
2024-03-02T06:19:02.638Z,35.38
2024-03-02T06:21:29.774Z,33.35
2024-03-02T06:23:58.344Z,33.63
2024-03-02T06:26:26.233Z,32.60
2024-03-02T06:28:53.513Z,33.72
2024-03-02T06:31:21.206Z,33.95
2024-03-02T06:33:48.047Z,32.60
2024-03-02T06:36:17.013Z,33.72
2024-03-02T06:38:44.062Z,33.80
2024-03-02T06:41:10.964Z,34.35
2024-03-02T06:43:37.771Z,31.77
2024-03-02T06:46:04.828Z,35.47
2024-03-02T06:48:31.824Z,35.92
2024-03-02T06:50:59.695Z,33.85
2024-03-02T06:53:26.848Z,32.45
2024-03-02T06:55:53.644Z,33.85
2024-03-02T06:58:20.824Z,35.50
2024-03-02T07:00:49.118Z,34.03
2024-03-02T07:03:15.992Z,35.20
2024-03-02T07:05:43.281Z,34.05
2024-03-02T07:08:10.292Z,33.65
2024-03-02T07:10:37.141Z,33.25
2024-03-02T07:13:04.122Z,34.88
2024-03-02T07:15:49.581Z,33.47
2024-03-02T07:18:16.697Z,33.17
2024-03-02T07:20:43.499Z,33.20
2024-03-02T07:23:10.602Z,33.80
2024-03-02T07:28:08.696Z,34.78
2024-03-02T07:30:36.227Z,32.85
2024-03-02T07:33:03.157Z,34.35
2024-03-02T07:35:32.823Z,34.00
2024-03-02T07:37:59.791Z,34.95
2024-03-02T07:40:27.231Z,33.53
2024-03-02T07:42:57.573Z,35.60
2024-03-02T07:45:25.485Z,34.70
2024-03-02T07:47:52.332Z,33.97
2024-03-02T07:50:19.174Z,34.25
2024-03-02T07:52:46.018Z,33.60
2024-03-02T07:55:12.812Z,33.75
2024-03-02T07:57:41.197Z,33.00
2024-03-02T08:00:08.530Z,32.78
2024-03-02T08:02:39.002Z,34.25
2024-03-02T08:05:05.834Z,33.20
2024-03-02T08:07:32.625Z,32.60
2024-03-02T08:10:02.597Z,32.80
2024-03-02T08:12:29.931Z,34.75
2024-03-02T08:14:57.269Z,34.03
2024-03-02T08:17:24.416Z,33.28
2024-03-02T08:19:51.243Z,33.92
2024-03-02T08:22:18.094Z,32.25
2024-03-02T08:24:44.923Z,32.78
2024-03-02T08:27:11.814Z,32.83
2024-03-02T08:29:38.605Z,32.47
2024-03-02T08:32:06.864Z,31.75
2024-03-02T08:34:33.766Z,32.05
2024-03-02T08:37:00.839Z,30.67
2024-03-02T08:39:27.740Z,31.60
2024-03-02T08:41:54.690Z,31.67
2024-03-02T08:44:21.549Z,31.15
2024-03-02T08:46:48.514Z,30.85
2024-03-02T08:49:15.319Z,31.50
2024-03-02T08:51:43.233Z,31.80
2024-03-02T08:54:14.623Z,31.70
2024-03-02T08:56:42.135Z,32.13
2024-03-02T08:59:08.963Z,30.02
2024-03-02T09:01:35.922Z,30.23
2024-03-02T09:04:03.739Z,30.58
2024-03-02T09:06:30.683Z,33.58
2024-03-02T09:08:57.622Z,31.30
2024-03-02T09:11:25.232Z,30.33
2024-03-02T09:13:52.139Z,30.70
2024-03-02T09:16:19.148Z,31.02
2024-03-02T09:18:46.931Z,34.08
2024-03-02T09:21:13.747Z,31.45
2024-03-02T09:23:41.629Z,31.13
2024-03-02T09:26:08.502Z,30.77
2024-03-02T09:28:35.887Z,31.33
2024-03-02T09:31:02.768Z,31.80
2024-03-02T09:33:29.617Z,31.10
2024-03-02T09:35:56.453Z,30.58
2024-03-02T09:38:23.333Z,30.08
2024-03-02T09:40:50.607Z,30.02
2024-03-02T09:43:18.160Z,30.35
2024-03-02T09:45:45.687Z,30.05
2024-03-02T09:48:12.506Z,28.13
2024-03-02T09:50:40.462Z,27.23
2024-03-02T09:53:09.032Z,29.92
2024-03-02T09:55:35.886Z,27.65
2024-03-02T09:58:03.459Z,27.52
2024-03-02T10:00:30.351Z,27.52
2024-03-02T10:03:00.785Z,27.38
2024-03-02T10:05:31.877Z,26.73
2024-03-02T10:08:03.453Z,26.67
2024-03-02T10:10:42.248Z,27.15
2024-03-02T10:13:10.134Z,25.58
2024-03-02T10:15:42.249Z,26.02
2024-03-02T10:18:13.515Z,25.50
2024-03-02T10:20:41.322Z,26.80
2024-03-02T10:23:12.690Z,25.95
2024-03-02T10:25:46.752Z,26.25
2024-03-02T10:28:19.560Z,25.60
2024-03-02T10:30:50.647Z,23.92
2024-03-02T10:33:18.714Z,23.90
2024-03-02T10:35:45.632Z,24.58
2024-03-02T10:38:12.964Z,22.88
2024-03-02T10:40:40.573Z,22.63
2024-03-02T10:43:09.208Z,23.65
2024-03-02T10:45:36.270Z,22.63
2024-03-02T10:48:04.052Z,23.08
2024-03-02T10:50:31.628Z,21.35
2024-03-02T10:52:58.644Z,22.45
2024-03-02T10:55:25.978Z,20.73
2024-03-02T10:57:58.585Z,21.67
2024-03-02T11:00:34.606Z,22.10
2024-03-02T11:03:11.570Z,21.00
2024-03-02T11:05:42.535Z,20.63
2024-03-02T11:08:14.021Z,19.65
2024-03-02T11:10:55.074Z,20.23
2024-03-02T11:13:25.741Z,20.50
2024-03-02T11:16:01.118Z,19.42
2024-03-02T11:18:28.537Z,19.95
2024-03-02T11:20:56.036Z,19.65
2024-03-02T11:23:33.298Z,19.52
2024-03-02T11:26:22.289Z,18.95
2024-03-02T11:28:49.722Z,19.40
2024-03-02T11:31:17.074Z,19.40
2024-03-02T11:33:44.913Z,19.08
2024-03-02T11:36:12.890Z,17.65
2024-03-02T11:38:40.239Z,19.10
2024-03-02T11:41:10.001Z,18.85
2024-03-02T11:43:41.152Z,18.50
2024-03-02T11:46:09.090Z,19.23
2024-03-02T11:48:38.100Z,18.50
2024-03-02T11:51:05.347Z,17.63
2024-03-02T11:53:36.214Z,18.75
2024-03-02T11:56:03.681Z,17.55
2024-03-02T11:58:31.480Z,18.00
2024-03-02T12:00:59.780Z,17.45
2024-03-02T12:03:27.414Z,17.75
2024-03-02T12:05:55.479Z,17.67
2024-03-02T12:08:22.983Z,17.55
2024-03-02T12:11:00.543Z,18.48
2024-03-02T12:13:27.807Z,16.75
2024-03-02T12:15:57.407Z,16.38
2024-03-02T12:18:24.419Z,16.80
2024-03-02T12:20:54.154Z,17.73
2024-03-02T12:23:21.422Z,16.02
2024-03-02T12:25:51.576Z,16.48
2024-03-02T12:28:19.046Z,15.85
2024-03-02T12:30:46.514Z,16.10
2024-03-02T12:33:13.736Z,17.45
2024-03-02T12:35:41.707Z,15.85
2024-03-02T12:38:08.548Z,15.60
2024-03-02T12:40:35.351Z,16.17
2024-03-02T12:43:02.983Z,15.70
2024-03-02T12:45:29.970Z,16.92
2024-03-02T12:47:56.822Z,16.27
2024-03-02T12:50:24.150Z,15.00
2024-03-02T12:52:57.094Z,16.00
2024-03-02T12:55:25.210Z,14.38
2024-03-02T12:57:53.651Z,15.00
2024-03-02T13:00:21.760Z,15.05
2024-03-02T13:02:49.849Z,14.13
2024-03-02T13:05:20.967Z,14.55
2024-03-02T13:07:51.741Z,14.00
2024-03-02T13:10:19.641Z,14.68
2024-03-02T13:12:47.094Z,15.48
2024-03-02T13:15:17.990Z,14.48
2024-03-02T13:17:48.752Z,14.05
2024-03-02T13:20:16.377Z,14.82
2024-03-02T13:22:43.589Z,14.65
2024-03-02T13:25:12.879Z,13.88
2024-03-02T13:30:07.661Z,14.32
2024-03-02T13:32:35.820Z,14.43
2024-03-02T13:35:04.383Z,14.60
2024-03-02T13:37:31.215Z,14.10
2024-03-02T13:39:58.123Z,13.85
2024-03-02T13:42:25.261Z,15.07
2024-03-02T13:44:52.766Z,14.95
2024-03-02T13:47:19.597Z,16.90
2024-03-02T13:49:48.466Z,14.38
2024-03-02T13:52:15.988Z,13.15
2024-03-02T13:54:44.009Z,12.98
2024-03-02T13:57:11.940Z,12.63
2024-03-02T13:59:39.574Z,12.65
2024-03-02T14:02:08.039Z,13.10
2024-03-02T14:04:35.050Z,12.07
2024-03-02T14:07:02.378Z,12.52
2024-03-02T14:09:30.430Z,14.00
2024-03-02T14:11:57.724Z,12.55
2024-03-02T14:14:24.655Z,11.57
2024-03-02T14:16:51.972Z,11.88
2024-03-02T14:19:18.824Z,11.98
2024-03-02T14:21:45.980Z,11.30
2024-03-02T14:24:13.087Z,12.02
2024-03-02T14:26:40.363Z,11.40
2024-03-02T14:29:07.620Z,12.88
2024-03-02T14:31:34.424Z,11.40
2024-03-02T14:34:01.700Z,10.93
2024-03-02T14:36:29.583Z,11.10
2024-03-02T14:38:56.993Z,11.52
2024-03-02T14:41:25.873Z,10.45
2024-03-02T14:43:53.350Z,10.07
2024-03-02T14:46:20.860Z,10.70
2024-03-02T14:48:48.207Z,11.80
2024-03-02T14:51:15.498Z,9.40
2024-03-02T14:53:43.245Z,10.88
2024-03-02T14:56:11.011Z,10.45
2024-03-02T14:58:38.220Z,11.18
2024-03-02T15:01:06.522Z,9.82
2024-03-02T15:03:34.018Z,10.93
2024-03-02T15:06:00.952Z,11.02
2024-03-02T15:08:28.021Z,10.02
2024-03-02T15:10:57.419Z,9.50
2024-03-02T15:13:24.502Z,9.90
2024-03-02T15:15:52.103Z,9.68
2024-03-02T15:18:19.147Z,8.35
2024-03-02T15:20:46.374Z,8.30
2024-03-02T15:23:13.191Z,7.88
2024-03-02T15:25:40.043Z,7.90
2024-03-02T15:28:07.406Z,7.68
2024-03-02T15:30:37.780Z,7.95
2024-03-02T15:33:05.030Z,8.23
2024-03-02T15:35:32.718Z,7.95
2024-03-02T15:37:59.557Z,9.20
2024-03-02T15:40:26.446Z,8.57
2024-03-02T15:42:53.248Z,9.32
2024-03-02T15:45:20.126Z,9.98
2024-03-02T15:47:47.021Z,9.23
2024-03-02T15:50:20.036Z,9.20
2024-03-02T15:52:48.204Z,9.50
2024-03-02T15:55:15.123Z,10.35
2024-03-02T15:57:46.727Z,8.88
2024-03-02T16:00:13.880Z,8.70
2024-03-02T16:02:40.706Z,9.45
2024-03-02T16:05:07.748Z,8.43
2024-03-02T16:07:35.502Z,8.20
2024-03-02T16:10:06.096Z,10.45
2024-03-02T16:12:33.079Z,10.25
2024-03-02T16:15:00.025Z,8.77
2024-03-02T16:17:27.972Z,10.85
2024-03-02T16:19:54.806Z,10.38
2024-03-02T16:22:23.461Z,10.55
2024-03-02T16:24:50.967Z,9.68
2024-03-02T16:27:19.456Z,8.93
2024-03-02T16:29:48.021Z,9.85
2024-03-02T16:32:14.846Z,8.48
2024-03-02T16:34:45.195Z,9.90
2024-03-02T16:37:12.102Z,9.25
2024-03-02T16:39:39.034Z,9.35
2024-03-02T16:42:05.831Z,8.93
2024-03-02T16:44:35.659Z,8.57
2024-03-02T16:47:02.514Z,9.30
2024-03-02T16:49:30.165Z,8.85
2024-03-02T16:51:57.012Z,10.93
2024-03-02T16:54:23.886Z,10.50
2024-03-02T16:56:50.709Z,9.02
2024-03-02T16:59:17.940Z,9.27
2024-03-02T17:01:44.798Z,9.57
2024-03-02T17:04:11.692Z,9.50
2024-03-02T17:06:38.542Z,10.25
2024-03-02T17:09:05.441Z,9.20
2024-03-02T17:11:32.400Z,9.52
2024-03-02T17:14:04.571Z,9.10
2024-03-02T17:16:31.961Z,9.48
2024-03-02T17:18:59.201Z,9.57
2024-03-02T17:21:26.581Z,9.38
2024-03-02T17:23:53.473Z,9.38
2024-03-02T17:26:20.240Z,9.70
2024-03-02T17:28:50.023Z,9.68
2024-03-02T17:31:16.920Z,9.70
2024-03-02T17:33:43.821Z,8.90
2024-03-02T17:36:10.705Z,8.38
2024-03-02T17:38:37.513Z,9.98
2024-03-02T17:41:06.314Z,10.48
2024-03-02T17:43:33.151Z,10.43
2024-03-02T17:46:00.924Z,10.15
2024-03-02T17:48:31.189Z,10.25
2024-03-02T17:50:58.004Z,10.63
2024-03-02T17:53:24.811Z,10.10
2024-03-02T17:55:51.763Z,10.40
2024-03-02T17:58:18.825Z,10.15
2024-03-02T18:00:46.333Z,10.40
2024-03-02T18:03:13.461Z,11.05
2024-03-02T18:05:40.272Z,10.13
2024-03-02T18:08:07.671Z,10.10
2024-03-02T18:10:35.130Z,9.98
2024-03-02T18:13:02.108Z,10.90
2024-03-02T18:15:29.067Z,10.73
2024-03-02T18:17:56.008Z,11.65
2024-03-02T18:20:22.805Z,11.43
2024-03-02T18:22:49.675Z,11.02
2024-03-02T18:25:16.634Z,10.90
2024-03-02T18:27:43.663Z,11.07
2024-03-02T18:30:13.847Z,11.50
2024-03-02T18:32:40.702Z,10.82
2024-03-02T18:35:09.878Z,10.98
2024-03-02T18:37:39.381Z,10.32
2024-03-02T18:40:07.046Z,11.15
2024-03-02T18:42:34.094Z,10.82
2024-03-02T18:45:04.876Z,11.77
2024-03-02T18:47:36.506Z,11.10
2024-03-02T18:50:06.799Z,11.40
2024-03-02T18:52:36.351Z,12.70
2024-03-02T18:55:04.651Z,12.52
2024-03-02T18:57:32.065Z,12.20
2024-03-02T18:59:59.012Z,12.48
2024-03-02T19:02:26.301Z,12.98
2024-03-02T19:04:53.389Z,12.50
2024-03-02T19:07:20.155Z,12.60
2024-03-02T19:09:47.773Z,13.20
2024-03-02T19:12:15.517Z,12.32
2024-03-02T19:14:42.279Z,14.02
2024-03-02T19:17:09.188Z,13.63
2024-03-02T19:19:36.040Z,13.52
2024-03-02T19:22:08.299Z,13.38
2024-03-02T19:24:39.368Z,13.80
2024-03-02T19:27:07.684Z,14.20
2024-03-02T19:29:34.821Z,14.63
2024-03-02T19:32:08.071Z,14.93
2024-03-02T19:34:39.077Z,13.50
2024-03-02T19:37:06.249Z,14.48
2024-03-02T19:39:37.813Z,14.35
2024-03-02T19:42:08.840Z,15.35
2024-03-02T19:44:35.760Z,13.95
2024-03-02T19:47:03.783Z,14.60
2024-03-02T19:49:30.748Z,14.30
2024-03-02T19:51:57.695Z,14.10
2024-03-02T19:54:24.630Z,19.63
2024-03-02T19:56:55.771Z,25.75
2024-03-02T19:59:23.409Z,18.95
2024-03-02T20:01:50.621Z,16.77
2024-03-02T20:04:18.125Z,15.27
2024-03-02T20:06:45.118Z,14.38
2024-03-02T20:09:13.442Z,14.13
2024-03-02T20:11:40.342Z,13.63
2024-03-02T20:14:07.187Z,13.70
2024-03-02T20:16:34.094Z,14.77
2024-03-02T20:19:01.351Z,14.85
2024-03-02T20:21:28.323Z,14.48
2024-03-02T20:23:55.661Z,15.13
2024-03-02T20:26:23.549Z,15.02
2024-03-02T20:28:54.556Z,14.93
2024-03-02T20:31:22.015Z,14.75
2024-03-02T20:33:49.107Z,15.00
2024-03-02T20:36:16.970Z,15.35
2024-03-02T20:38:44.123Z,15.75
2024-03-02T20:41:17.322Z,14.77
2024-03-02T20:43:44.856Z,15.98
2024-03-02T20:46:12.808Z,14.93
2024-03-02T20:48:40.686Z,15.77
2024-03-02T20:51:07.794Z,14.57
2024-03-02T20:53:34.838Z,15.88
2024-03-02T20:56:01.825Z,14.13
2024-03-02T20:58:28.756Z,15.63
2024-03-02T21:00:56.266Z,16.25
2024-03-02T21:03:24.092Z,15.60
2024-03-02T21:05:50.988Z,14.98
2024-03-02T21:08:20.866Z,15.50
2024-03-02T21:10:49.861Z,15.95
2024-03-02T21:13:17.816Z,15.77
2024-03-02T21:15:45.118Z,16.35
2024-03-02T21:18:12.176Z,15.90
2024-03-02T21:20:38.989Z,16.33
2024-03-02T21:23:05.907Z,16.08
2024-03-02T21:25:36.758Z,15.20
2024-03-02T21:28:04.430Z,15.48
2024-03-02T21:30:32.211Z,16.58
2024-03-02T21:32:59.528Z,15.73
2024-03-02T21:35:28.678Z,16.13
2024-03-02T21:37:56.961Z,15.50
2024-03-02T21:40:24.648Z,15.45
2024-03-02T21:42:52.258Z,15.32
2024-03-02T21:45:19.464Z,15.68
2024-03-02T21:47:47.255Z,16.65
2024-03-02T21:50:14.217Z,15.80
2024-03-02T21:52:40.996Z,15.77
2024-03-02T21:55:11.259Z,15.45
2024-03-02T21:57:38.657Z,15.90
2024-03-02T22:00:06.266Z,16.05
2024-03-02T22:02:39.353Z,17.33
2024-03-02T22:05:07.130Z,16.50
2024-03-02T22:07:34.526Z,16.70
2024-03-02T22:10:01.591Z,15.95
2024-03-02T22:12:28.432Z,15.88
2024-03-02T22:14:55.227Z,16.38
2024-03-02T22:17:24.007Z,16.55
2024-03-02T22:19:50.968Z,15.95
2024-03-02T22:22:18.031Z,17.42
2024-03-02T22:24:45.088Z,16.70
2024-03-02T22:27:12.146Z,16.25
2024-03-02T22:29:41.506Z,15.43
2024-03-02T22:32:08.610Z,15.55
2024-03-02T22:34:36.110Z,15.60
2024-03-02T22:37:03.613Z,16.23
2024-03-02T22:39:30.463Z,16.98
2024-03-02T22:41:57.273Z,17.27
2024-03-02T22:44:24.113Z,17.35
2024-03-02T22:46:56.798Z,16.67
2024-03-02T22:49:23.674Z,17.90
2024-03-02T22:51:53.859Z,15.95
2024-03-02T22:54:20.680Z,16.42
2024-03-02T22:56:48.626Z,15.05
2024-03-02T22:59:16.167Z,16.35
2024-03-02T23:01:46.212Z,17.02
2024-03-02T23:04:13.399Z,17.00
2024-03-02T23:06:41.075Z,16.73
2024-03-02T23:09:09.558Z,16.60
2024-03-02T23:11:37.491Z,15.88
2024-03-02T23:14:05.980Z,16.10
2024-03-02T23:16:35.662Z,17.27
2024-03-02T23:19:03.218Z,16.98
2024-03-02T23:21:31.362Z,17.52
2024-03-02T23:23:59.033Z,17.27
2024-03-02T23:26:26.433Z,17.45
2024-03-02T23:28:53.488Z,15.40
2024-03-02T23:31:21.313Z,18.75
2024-03-02T23:33:49.735Z,17.60
2024-03-02T23:36:16.573Z,15.90
2024-03-02T23:38:43.393Z,16.58
2024-03-02T23:41:11.667Z,16.90
2024-03-02T23:43:39.070Z,17.00
2024-03-02T23:46:07.799Z,16.98
2024-03-02T23:48:35.822Z,17.55
2024-03-02T23:51:03.394Z,17.75
2024-03-02T23:53:31.599Z,16.13
2024-03-02T23:56:08.859Z,16.52
2024-03-02T23:58:35.712Z,16.42
